Time;durP1;ratioP1;P1;durP2;ratioP2;P2;SDS_P1;SDS_P2;PMS_P1;PMS_P2;Temp;Humidity;BMP_temperature;BMP_pressure;BME280_temperature;BME280_humidity;BME280_pressure;Samples;Min_cycle;Max_cycle;Signal;HPM_P1;HPM_P2
2021/12/27 00:00:40;;;;;;;;;3.67;3.00;;;;;-146.25;100.00;57879.81;5077212;28;45483;-76
2021/12/27 00:03:06;;;;;;;;;1.00;1.00;;;;;-146.25;100.00;57879.81;5077208;28;45310;-76
2021/12/27 00:05:32;;;;;;;;;0.33;0.00;;;;;-146.25;100.00;57879.81;5077478;28;45508;-76
2021/12/27 00:07:58;;;;;;;;;1.00;1.00;;;;;-146.25;100.00;57879.81;5077879;27;45405;-76
2021/12/27 00:10:28;;;;;;;;;0.00;0.00;;;;;-146.25;100.00;57879.81;5076993;28;45857;-76
2021/12/27 00:12:54;;;;;;;;;0.00;0.00;;;;;-146.25;100.00;57879.81;5077111;27;45287;-76
2021/12/27 00:15:20;;;;;;;;;0.00;0.00;;;;;-146.25;100.00;57879.81;5077219;27;45325;-76
2021/12/27 00:17:47;;;;;;;;;0.00;0.00;;;;;-146.25;100.00;57879.81;5077306;28;45318;-75
2021/12/27 00:20:15;;;;;;;;;0.00;0.00;;;;;-146.25;100.00;57879.81;5077211;28;45498;-76
2021/12/27 00:22:42;;;;;;;;;0.00;0.00;;;;;-146.25;100.00;57879.81;5077083;27;45330;-75
2021/12/27 00:25:09;;;;;;;;;0.00;0.00;;;;;-146.25;100.00;57879.81;5077250;27;45538;-74
2021/12/27 00:27:34;;;;;;;;;0.00;0.00;;;;;-146.25;100.00;57879.81;5077213;27;45497;-76
2021/12/27 00:30:05;;;;;;;;;0.00;0.00;;;;;-146.25;100.00;57879.81;5080471;27;45425;-76
2021/12/27 00:32:32;;;;;;;;;0.00;0.00;;;;;-146.25;100.00;57879.81;5080644;27;45443;-75
2021/12/27 00:34:58;;;;;;;;;0.00;0.00;;;;;-146.25;100.00;57879.81;5096396;27;45485;-76
2021/12/27 00:37:24;;;;;;;;;0.00;0.00;;;;;-146.25;100.00;57879.81;5080675;28;45155;-76
2021/12/27 00:39:49;;;;;;;;;0.00;0.00;;;;;-146.25;100.00;57879.81;5080461;28;45483;-76
2021/12/27 00:42:15;;;;;;;;;1.00;1.00;;;;;-146.25;100.00;57879.81;5080355;27;45402;-76
2021/12/27 00:44:41;;;;;;;;;2.67;2.67;;;;;-146.25;100.00;57879.81;5080683;27;45485;-75
2021/12/27 00:47:06;;;;;;;;;3.00;3.00;;;;;-146.25;100.00;57879.81;5080653;27;45491;-77
2021/12/27 00:49:32;;;;;;;;;7.67;7.00;;;;;-146.25;100.00;57879.81;5080413;28;45635;-76
2021/12/27 00:51:57;;;;;;;;;3.33;3.00;;;;;-146.25;100.00;57879.81;5080190;27;45383;-76
2021/12/27 00:54:23;;;;;;;;;1.00;1.00;;;;;-146.25;100.00;57879.81;5080234;28;45460;-76
2021/12/27 00:56:49;;;;;;;;;5.67;5.33;;;;;-146.25;100.00;57879.81;5080372;28;45466;-76
2021/12/27 00:59:14;;;;;;;;;1.00;1.00;;;;;-146.25;100.00;57879.81;5080006;28;45492;-76
2021/12/27 01:01:40;;;;;;;;;2.00;1.00;;;;;-146.25;100.00;57879.81;5079912;28;45413;-77
2021/12/27 01:04:06;;;;;;;;;4.00;3.00;;;;;-146.25;100.00;57879.81;5080096;27;45495;-76
2021/12/27 01:06:33;;;;;;;;;2.00;1.67;;;;;-146.25;100.00;57879.81;5080559;27;45539;-76
2021/12/27 01:08:59;;;;;;;;;2.00;1.33;;;;;-146.25;100.00;57879.81;5079819;27;45257;-76
2021/12/27 01:11:35;;;;;;;;;3.00;3.00;;;;;-146.25;100.00;57879.81;5079588;28;45226;-76
2021/12/27 01:16:33;;;;;;;;;4.33;4.00;;;;;-146.25;100.00;57879.81;5080318;28;45234;-75
2021/12/27 01:18:59;;;;;;;;;3.00;3.00;;;;;-146.25;100.00;57879.81;5095338;27;46436;-76
2021/12/27 01:21:24;;;;;;;;;3.00;3.00;;;;;-146.25;100.00;57879.81;5079853;28;45234;-76
2021/12/27 01:23:51;;;;;;;;;2.00;0.00;;;;;-146.25;100.00;57879.81;5078557;28;45491;-76
2021/12/27 01:26:17;;;;;;;;;1.00;1.00;;;;;-146.25;100.00;57879.81;5080127;27;45291;-77
2021/12/27 01:28:44;;;;;;;;;2.00;2.00;;;;;-146.25;100.00;57879.81;5079354;27;45445;-76
2021/12/27 01:31:10;;;;;;;;;3.00;2.33;;;;;-146.25;100.00;57879.81;5078236;28;45349;-76
2021/12/27 01:33:36;;;;;;;;;2.33;2.00;;;;;-146.25;100.00;57879.81;5079736;28;45403;-76
2021/12/27 01:36:04;;;;;;;;;1.00;1.00;;;;;-146.25;100.00;57879.81;5080226;28;45248;-77
2021/12/27 01:38:30;;;;;;;;;0.33;0.33;;;;;-146.25;100.00;57879.81;5079206;27;45579;-77
2021/12/27 01:40:57;;;;;;;;;1.00;1.00;;;;;-146.25;100.00;57879.81;5078413;28;46062;-77
2021/12/27 01:43:26;;;;;;;;;2.00;1.00;;;;;-146.25;100.00;57879.81;5079295;27;45475;-77
2021/12/27 01:46:03;;;;;;;;;1.00;1.00;;;;;-146.25;100.00;57879.81;5079505;27;45532;-77
2021/12/27 01:48:35;;;;;;;;;0.00;0.00;;;;;-146.25;100.00;57879.81;5079002;27;46168;-75
2021/12/27 01:51:03;;;;;;;;;2.00;1.00;;;;;-146.25;100.00;57879.81;5078953;27;45321;-77
2021/12/27 01:53:32;;;;;;;;;2.00;1.00;;;;;-146.25;100.00;57879.81;5095156;27;45192;-77
2021/12/27 01:55:59;;;;;;;;;4.00;2.00;;;;;-146.25;100.00;57879.81;5079589;27;46076;-77
2021/12/27 01:58:26;;;;;;;;;1.00;0.00;;;;;-146.25;100.00;57879.81;5078976;27;46231;-77
2021/12/27 02:00:57;;;;;;;;;2.00;2.00;;;;;-146.25;100.00;57879.81;5079068;28;45359;-77
2021/12/27 02:03:25;;;;;;;;;1.00;1.00;;;;;-146.25;100.00;57879.81;5078894;28;45602;-76
2021/12/27 02:05:51;;;;;;;;;1.00;1.00;;;;;-146.25;100.00;57879.81;5079458;27;45423;-77
2021/12/27 02:08:17;;;;;;;;;2.33;2.00;;;;;-146.25;100.00;57879.81;5078687;28;46189;-76
2021/12/27 02:10:43;;;;;;;;;0.67;0.00;;;;;-146.25;100.00;57879.81;5078795;27;45256;-77
2021/12/27 02:13:09;;;;;;;;;1.00;1.00;;;;;-146.25;100.00;57879.81;5079380;27;45519;-77
2021/12/27 02:15:36;;;;;;;;;1.00;1.00;;;;;-146.25;100.00;57879.81;5079474;27;45272;-77
2021/12/27 02:18:02;;;;;;;;;0.33;0.33;;;;;-146.25;100.00;57879.81;5078703;27;45292;-77
2021/12/27 02:20:31;;;;;;;;;1.00;1.00;;;;;-146.25;100.00;57879.81;5078678;28;45345;-77
2021/12/27 02:23:01;;;;;;;;;1.00;0.00;;;;;-146.25;100.00;57879.81;5078796;27;45250;-77
2021/12/27 02:25:30;;;;;;;;;3.00;2.00;;;;;-146.25;100.00;57879.81;5078901;27;45507;-77
2021/12/27 02:27:56;;;;;;;;;1.00;1.00;;;;;-146.25;100.00;57879.81;5078469;27;46206;-76
2021/12/27 02:30:22;;;;;;;;;2.67;2.00;;;;;-146.25;100.00;57879.81;5078434;27;45519;-77
2021/12/27 02:32:54;;;;;;;;;0.00;0.00;;;;;-146.25;100.00;57879.81;5078692;27;45206;-77
2021/12/27 02:35:24;;;;;;;;;1.00;1.00;;;;;-146.25;100.00;57879.81;5078738;27;45549;-77
2021/12/27 02:37:50;;;;;;;;;1.00;1.00;;;;;-146.25;100.00;57879.81;5078366;27;45477;-76
2021/12/27 02:40:16;;;;;;;;;1.00;1.00;;;;;-146.25;100.00;57879.81;5078690;27;45394;-77
2021/12/27 02:42:52;;;;;;;;;0.00;0.00;;;;;-146.25;100.00;57879.81;5078537;27;45570;-77
2021/12/27 02:45:17;;;;;;;;;0.33;0.33;;;;;-146.25;100.00;57879.81;5078610;28;45551;-77
2021/12/27 02:47:43;;;;;;;;;5.00;5.00;;;;;-146.25;100.00;57879.81;5078146;28;45436;-76
2021/12/27 02:50:09;;;;;;;;;1.00;1.00;;;;;-146.25;100.00;57879.81;5078619;28;45424;-77
2021/12/27 02:52:34;;;;;;;;;0.00;0.00;;;;;-146.25;100.00;57879.81;5078314;28;45551;-77
2021/12/27 02:55:00;;;;;;;;;0.00;0.00;;;;;-146.25;100.00;57879.81;5078753;28;45511;-77
2021/12/27 02:57:25;;;;;;;;;0.00;0.00;;;;;-146.25;100.00;57879.81;5077997;28;45581;-77
2021/12/27 02:59:52;;;;;;;;;0.33;0.00;;;;;-146.25;100.00;57879.81;5078205;28;45437;-77
2021/12/27 03:02:18;;;;;;;;;0.00;0.00;;;;;-146.25;100.00;57879.81;5078418;27;45275;-77
2021/12/27 03:04:46;;;;;;;;;0.00;0.00;;;;;-146.25;100.00;57879.81;5078407;27;45334;-77
2021/12/27 03:07:11;;;;;;;;;0.00;0.00;;;;;-146.25;100.00;57879.81;5078364;27;46394;-76
2021/12/27 03:09:40;;;;;;;;;0.00;0.00;;;;;-146.25;100.00;57879.81;5077804;27;45750;-76
2021/12/27 03:12:10;;;;;;;;;0.33;0.33;;;;;-146.25;100.00;57879.81;5078235;27;45287;-77
2021/12/27 03:14:36;;;;;;;;;0.00;0.00;;;;;-146.25;100.00;57879.81;5078221;27;45312;-75
2021/12/27 03:17:02;;;;;;;;;0.00;0.00;;;;;-146.25;100.00;57879.81;5077707;28;45518;-77
2021/12/27 03:19:27;;;;;;;;;0.00;0.00;;;;;-146.25;100.00;57879.81;5077919;28;45602;-76
2021/12/27 03:21:53;;;;;;;;;0.00;0.00;;;;;-146.25;100.00;57879.81;5077974;28;45361;-77
2021/12/27 03:24:18;;;;;;;;;0.00;0.00;;;;;-146.25;100.00;57879.81;5078275;28;45471;-77
2021/12/27 03:26:44;;;;;;;;;0.67;0.00;;;;;-146.25;100.00;57879.81;5077651;27;46401;-76
2021/12/27 03:29:11;;;;;;;;;0.00;0.00;;;;;-146.25;100.00;57879.81;5078196;28;45427;-77
2021/12/27 03:31:37;;;;;;;;;0.00;0.00;;;;;-146.25;100.00;57879.81;5077973;27;45302;-77
2021/12/27 03:34:04;;;;;;;;;0.00;0.00;;;;;-146.25;100.00;57879.81;5077877;28;45180;-77
2021/12/27 03:36:37;;;;;;;;;0.00;0.00;;;;;-146.25;100.00;57879.81;5077500;27;45527;-77
2021/12/27 03:39:06;;;;;;;;;1.00;1.00;;;;;-146.25;100.00;57879.81;5077732;27;45491;-77
2021/12/27 03:41:32;;;;;;;;;0.00;0.00;;;;;-146.25;100.00;57879.81;5077611;27;45241;-76
2021/12/27 03:43:58;;;;;;;;;1.00;1.00;;;;;-146.25;100.00;57879.81;5077721;28;45427;-76
2021/12/27 03:46:23;;;;;;;;;0.67;0.67;;;;;-146.25;100.00;57879.81;5077275;28;45606;-77
2021/12/27 03:48:49;;;;;;;;;1.00;1.00;;;;;-146.25;100.00;57879.81;5077505;28;45347;-77
2021/12/27 03:51:15;;;;;;;;;0.00;0.00;;;;;-146.25;100.00;57879.81;5077927;28;45354;-77
2021/12/27 03:53:40;;;;;;;;;0.00;0.00;;;;;-146.25;100.00;57879.81;5078077;28;45467;-77
2021/12/27 03:56:08;;;;;;;;;1.33;1.00;;;;;-146.25;100.00;57879.81;5077499;27;45998;-77
2021/12/27 03:58:46;;;;;;;;;0.00;0.00;;;;;-146.25;100.00;57879.81;5077288;27;45250;-77
2021/12/27 04:01:16;;;;;;;;;0.00;0.00;;;;;-146.25;100.00;57879.81;5077723;27;45465;-77
2021/12/27 04:03:47;;;;;;;;;0.00;0.00;;;;;-146.25;100.00;57879.81;5079698;27;45498;-77
2021/12/27 04:06:15;;;;;;;;;0.00;0.00;;;;;-146.25;100.00;57879.81;5081441;27;46130;-77
2021/12/27 04:08:41;;;;;;;;;0.00;0.00;;;;;-146.25;100.00;57879.81;5081092;28;45274;-77
2021/12/27 04:11:07;;;;;;;;;0.00;0.00;;;;;-146.25;100.00;57879.81;5080865;28;45441;-77
2021/12/27 04:13:33;;;;;;;;;0.00;0.00;;;;;-146.25;100.00;57879.81;5081261;28;45180;-77
2021/12/27 04:15:59;;;;;;;;;0.00;0.00;;;;;-146.25;100.00;57879.81;5080684;27;46203;-77
2021/12/27 04:18:25;;;;;;;;;0.00;0.00;;;;;-146.25;100.00;57879.81;5080831;28;45249;-77
2021/12/27 04:20:51;;;;;;;;;0.00;0.00;;;;;-146.25;100.00;57879.81;5080901;28;45344;-77
2021/12/27 04:23:17;;;;;;;;;0.00;0.00;;;;;-146.25;100.00;57879.81;5081307;28;45591;-77
2021/12/27 04:25:43;;;;;;;;;0.00;0.00;;;;;-146.25;100.00;57879.81;5080883;27;45897;-76
2021/12/27 04:28:09;;;;;;;;;1.00;0.00;;;;;-146.25;100.00;57879.81;5080620;27;45283;-78
2021/12/27 04:30:34;;;;;;;;;0.00;0.00;;;;;-146.25;100.00;57879.81;5080666;28;45551;-79
2021/12/27 04:33:00;;;;;;;;;0.00;0.00;;;;;-146.25;100.00;57879.81;5080793;27;45489;-77
2021/12/27 04:35:26;;;;;;;;;0.00;0.00;;;;;-146.25;100.00;57879.81;5080341;28;46041;-77
2021/12/27 04:37:51;;;;;;;;;0.33;0.33;;;;;-146.25;100.00;57879.81;5080467;27;45457;-77
2021/12/27 04:40:19;;;;;;;;;1.00;0.00;;;;;-146.25;100.00;57879.81;5080691;27;45341;-77
2021/12/27 04:42:49;;;;;;;;;0.00;0.00;;;;;-146.25;100.00;57879.81;5081185;27;45298;-77
2021/12/27 04:45:16;;;;;;;;;0.00;0.00;;;;;-146.25;100.00;57879.81;5080661;27;45546;-77
2021/12/27 04:47:42;;;;;;;;;0.00;0.00;;;;;-146.25;100.00;57879.81;5080158;28;45385;-77
2021/12/27 04:50:08;;;;;;;;;0.00;0.00;;;;;-146.25;100.00;57879.81;5080305;27;45358;-77
2021/12/27 04:52:34;;;;;;;;;0.00;0.00;;;;;-146.25;100.00;57879.81;5080599;27;45261;-77
2021/12/27 04:54:59;;;;;;;;;0.67;0.00;;;;;-146.25;100.00;57879.81;5079928;27;45829;-77
2021/12/27 04:57:25;;;;;;;;;0.00;0.00;;;;;-146.25;100.00;57879.81;5080120;28;45491;-77
2021/12/27 04:59:51;;;;;;;;;0.00;0.00;;;;;-146.25;100.00;57879.81;5080225;28;45326;-77
2021/12/27 05:02:17;;;;;;;;;0.00;0.00;;;;;-146.25;100.00;57879.81;5080683;28;45499;-77
2021/12/27 05:04:42;;;;;;;;;0.00;0.00;;;;;-146.25;100.00;57879.81;5079949;27;45552;-77
2021/12/27 05:07:08;;;;;;;;;0.00;0.00;;;;;-146.25;100.00;57879.81;5079839;28;46204;-77
2021/12/27 05:09:34;;;;;;;;;0.00;0.00;;;;;-146.25;100.00;57879.81;5079834;28;45330;-77
2021/12/27 05:11:59;;;;;;;;;0.00;0.00;;;;;-146.25;100.00;57879.81;5080128;27;45354;-77
2021/12/27 05:14:25;;;;;;;;;0.00;0.00;;;;;-146.25;100.00;57879.81;5078717;28;46017;-76
2021/12/27 05:16:50;;;;;;;;;1.67;0.00;;;;;-146.25;100.00;57879.81;5079741;27;45278;-76
2021/12/27 05:19:16;;;;;;;;;1.00;0.00;;;;;-146.25;100.00;57879.81;5080358;28;45416;-77
2021/12/27 05:21:41;;;;;;;;;2.33;1.00;;;;;-146.25;100.00;57879.81;5080016;27;45452;-77
2021/12/27 05:24:07;;;;;;;;;0.00;0.00;;;;;-146.25;100.00;57879.81;5079706;28;45509;-77
2021/12/27 05:26:33;;;;;;;;;1.33;1.00;;;;;-146.25;100.00;57879.81;5079597;28;45378;-77
2021/12/27 05:28:59;;;;;;;;;1.00;0.00;;;;;-146.25;100.00;57879.81;5079897;28;45317;-77
2021/12/27 05:31:24;;;;;;;;;1.00;0.00;;;;;-146.25;100.00;57879.81;5079808;27;45263;-77
2021/12/27 05:33:50;;;;;;;;;1.00;1.00;;;;;-146.25;100.00;57879.81;5079749;28;45291;-77
2021/12/27 05:36:16;;;;;;;;;2.00;0.00;;;;;-146.25;100.00;57879.81;5079957;27;45258;-77
2021/12/27 05:38:41;;;;;;;;;1.00;0.00;;;;;-146.25;100.00;57879.81;5095187;27;45260;-77
2021/12/27 05:41:07;;;;;;;;;0.00;0.00;;;;;-146.25;100.00;57879.81;5079703;27;45546;-77
2021/12/27 05:43:33;;;;;;;;;1.00;0.00;;;;;-146.25;100.00;57879.81;5079688;28;46045;-77
2021/12/27 05:45:59;;;;;;;;;0.00;0.00;;;;;-146.25;100.00;57879.81;5079502;27;45283;-77
2021/12/27 05:48:25;;;;;;;;;1.00;1.00;;;;;-146.25;100.00;57879.81;5079371;27;45479;-77
2021/12/27 05:50:50;;;;;;;;;1.00;0.00;;;;;-146.25;100.00;57879.81;5079778;28;45292;-77
2021/12/27 05:53:16;;;;;;;;;0.00;0.00;;;;;-146.25;100.00;57879.81;5079075;28;45426;-77
2021/12/27 05:55:43;;;;;;;;;0.00;0.00;;;;;-146.25;100.00;57879.81;5079287;27;45854;-77
2021/12/27 05:58:09;;;;;;;;;0.00;0.00;;;;;-146.25;100.00;57879.81;5079364;27;45460;-77
2021/12/27 06:00:35;;;;;;;;;1.00;0.00;;;;;-146.25;100.00;57879.81;5079513;28;45432;-77
2021/12/27 06:03:02;;;;;;;;;0.67;0.00;;;;;-146.25;100.00;57879.81;5079041;27;46063;-77
2021/12/27 06:05:28;;;;;;;;;0.00;0.00;;;;;-146.25;100.00;57879.81;5079188;28;45309;-76
2021/12/27 06:07:54;;;;;;;;;0.00;0.00;;;;;-146.25;100.00;57879.81;5078795;27;45413;-76
2021/12/27 06:10:19;;;;;;;;;1.00;1.00;;;;;-146.25;100.00;57879.81;5079500;27;45469;-77
2021/12/27 06:12:46;;;;;;;;;2.00;1.00;;;;;-146.25;100.00;57879.81;5078980;27;45385;-77
2021/12/27 06:15:12;;;;;;;;;1.00;0.00;;;;;-146.25;100.00;57879.81;5079039;27;45321;-77
2021/12/27 06:17:39;;;;;;;;;0.00;0.00;;;;;-146.25;100.00;57879.81;5077784;28;45551;-77
2021/12/27 06:20:08;;;;;;;;;0.33;0.00;;;;;-146.25;100.00;57879.81;5079154;27;45343;-77
2021/12/27 06:22:36;;;;;;;;;0.00;0.00;;;;;-146.25;100.00;57879.81;5078674;27;46093;-77
2021/12/27 06:25:03;;;;;;;;;1.00;0.00;;;;;-146.25;100.00;57879.81;5078739;27;45230;-77
2021/12/27 06:27:32;;;;;;;;;0.00;0.00;;;;;-146.25;100.00;57879.81;5078330;27;45534;-77
2021/12/27 06:30:00;;;;;;;;;9.00;9.00;;;;;-146.25;100.00;57879.81;5078639;28;45521;-76
2021/12/27 06:32:26;;;;;;;;;0.00;0.00;;;;;-146.25;100.00;57879.81;5078367;27;45550;-77
2021/12/27 06:34:51;;;;;;;;;0.00;0.00;;;;;-146.25;100.00;57879.81;5078726;27;45413;-77
2021/12/27 06:37:17;;;;;;;;;0.00;0.00;;;;;-146.25;100.00;57879.81;5078690;28;45485;-77
2021/12/27 06:39:42;;;;;;;;;0.00;0.00;;;;;-146.25;100.00;57879.81;5078947;28;45498;-77
2021/12/27 06:42:08;;;;;;;;;0.00;0.00;;;;;-146.25;100.00;57879.81;5078415;28;45943;-76
2021/12/27 06:44:34;;;;;;;;;0.00;0.00;;;;;-146.25;100.00;57879.81;5078713;27;45254;-77
2021/12/27 06:47:00;;;;;;;;;0.00;0.00;;;;;-146.25;100.00;57879.81;5078839;28;45781;-77
2021/12/27 06:49:31;;;;;;;;;0.00;0.00;;;;;-146.25;100.00;57879.81;5078617;28;45361;-76
2021/12/27 06:51:57;;;;;;;;;0.00;0.00;;;;;-146.25;100.00;57879.81;5078384;27;45984;-77
2021/12/27 06:54:23;;;;;;;;;0.67;0.00;;;;;-146.25;100.00;57879.81;5078532;28;45302;-77
2021/12/27 06:56:49;;;;;;;;;0.00;0.00;;;;;-146.25;100.00;57879.81;5078336;28;45246;-77
2021/12/27 06:59:14;;;;;;;;;0.00;0.00;;;;;-146.25;100.00;57879.81;5078385;28;45240;-77
2021/12/27 07:01:40;;;;;;;;;0.00;0.00;;;;;-146.25;100.00;57879.81;5077959;27;45384;-77
2021/12/27 07:04:05;;;;;;;;;0.00;0.00;;;;;-146.25;100.00;57879.81;5077972;28;45475;-77
2021/12/27 07:06:31;;;;;;;;;0.00;0.00;;;;;-146.25;100.00;57879.81;5078372;28;45459;-76
2021/12/27 07:08:57;;;;;;;;;0.00;0.00;;;;;-146.25;100.00;57879.81;5078458;28;45199;-76
2021/12/27 07:11:23;;;;;;;;;0.00;0.00;;;;;-146.25;100.00;57879.81;5078189;27;46194;-77
2021/12/27 07:13:48;;;;;;;;;0.33;0.33;;;;;-146.25;100.00;57879.81;5078014;27;45366;-77
2021/12/27 07:16:14;;;;;;;;;4.67;2.67;;;;;-146.25;100.00;57879.81;5078007;28;45498;-77
2021/12/27 07:18:40;;;;;;;;;3.00;2.67;;;;;-146.25;100.00;57879.81;5077914;28;45456;-77
2021/12/27 07:21:05;;;;;;;;;4.67;3.00;;;;;-146.25;100.00;57879.81;5077690;28;45405;-77
2021/12/27 07:23:31;;;;;;;;;0.33;0.00;;;;;-146.25;100.00;57879.81;5077780;28;45410;-76
2021/12/27 07:25:56;;;;;;;;;0.00;0.00;;;;;-146.25;100.00;57879.81;5078691;27;45555;-77
2021/12/27 07:28:22;;;;;;;;;0.00;0.00;;;;;-146.25;100.00;57879.81;5078620;28;45389;-77
2021/12/27 07:30:48;;;;;;;;;0.00;0.00;;;;;-146.25;100.00;57879.81;5077319;28;45431;-77
2021/12/27 07:33:13;;;;;;;;;0.33;0.33;;;;;-146.25;100.00;57879.81;5077429;27;45454;-77
2021/12/27 07:35:39;;;;;;;;;2.00;1.00;;;;;-146.25;100.00;57879.81;5077726;28;45497;-77
2021/12/27 07:38:06;;;;;;;;;17.00;12.33;;;;;-146.25;100.00;57879.81;5076668;27;45290;-77
2021/12/27 07:40:32;;;;;;;;;38.25;33.75;;;;;-146.25;100.00;57879.81;5077384;27;46103;-77
2021/12/27 07:42:57;;;;;;;;;3.33;3.33;;;;;-146.25;100.00;57879.81;5077902;27;45176;-77
2021/12/27 07:45:23;;;;;;;;;1.00;1.00;;;;;-146.25;100.00;57879.81;5077710;28;45283;-77
2021/12/27 07:47:49;;;;;;;;;2.67;2.33;;;;;-146.25;100.00;57879.81;5077806;28;45826;-76
2021/12/27 07:50:14;;;;;;;;;4.00;3.00;;;;;-146.25;100.00;57879.81;5077245;27;45898;-77
2021/12/27 07:52:40;;;;;;;;;5.00;4.00;;;;;-146.25;100.00;57879.81;5078591;28;45473;-77
2021/12/27 07:55:06;;;;;;;;;0.00;0.00;;;;;-146.25;100.00;57879.81;5078811;28;45582;-78
2021/12/27 07:57:32;;;;;;;;;1.00;0.67;;;;;-146.25;100.00;57879.81;5093775;27;45386;-76
2021/12/27 07:59:57;;;;;;;;;0.00;0.00;;;;;-146.25;100.00;57879.81;5077650;28;46219;-77
2021/12/27 08:02:23;;;;;;;;;0.00;0.00;;;;;-146.25;100.00;57879.81;5077353;28;45452;-77
2021/12/27 08:04:49;;;;;;;;;0.00;0.00;;;;;-146.25;100.00;57879.81;5077668;28;45462;-77
2021/12/27 08:07:14;;;;;;;;;0.00;0.00;;;;;-146.25;100.00;57879.81;5077722;27;45344;-77
2021/12/27 08:09:40;;;;;;;;;1.00;0.00;;;;;-146.25;100.00;57879.81;5077410;27;46033;-76
2021/12/27 08:12:09;;;;;;;;;1.00;1.00;;;;;-146.25;100.00;57879.81;5077176;27;45440;-76
2021/12/27 08:14:35;;;;;;;;;2.00;0.00;;;;;-146.25;100.00;57879.81;5077266;28;45360;-78
2021/12/27 08:17:01;;;;;;;;;2.00;1.00;;;;;-146.25;100.00;57879.81;5077283;27;45357;-76
2021/12/27 08:19:26;;;;;;;;;7.00;7.00;;;;;-146.25;100.00;57879.81;5077270;28;46129;-76
2021/12/27 08:21:52;;;;;;;;;7.00;5.33;;;;;-146.25;100.00;57879.81;5077088;27;45371;-77
2021/12/27 08:24:18;;;;;;;;;1.33;1.00;;;;;-146.25;100.00;57879.81;5077382;28;45376;-77
2021/12/27 08:26:43;;;;;;;;;2.00;1.00;;;;;-146.25;100.00;57879.81;5077473;28;45500;-77
2021/12/27 08:29:10;;;;;;;;;9.33;7.33;;;;;-146.25;100.00;57879.81;5076813;28;46162;-77
2021/12/27 08:31:36;;;;;;;;;8.67;7.00;;;;;-146.25;100.00;57879.81;5076656;27;45367;-77
2021/12/27 08:34:02;;;;;;;;;12.67;11.67;;;;;-146.25;100.00;57879.81;5076823;28;45159;-76
2021/12/27 08:36:28;;;;;;;;;15.75;14.00;;;;;-146.25;100.00;57879.81;5076116;28;45465;-76
2021/12/27 08:38:53;;;;;;;;;3.00;2.33;;;;;-146.25;100.00;57879.81;5076832;28;45513;-76
2021/12/27 08:41:20;;;;;;;;;2.00;1.00;;;;;-146.25;100.00;57879.81;5076817;28;45262;-76
2021/12/27 08:43:47;;;;;;;;;3.33;2.67;;;;;-146.25;100.00;57879.81;5076854;27;45823;-77
2021/12/27 08:46:13;;;;;;;;;4.33;3.67;;;;;-146.25;100.00;57879.81;5076778;27;45348;-77
2021/12/27 08:48:40;;;;;;;;;5.00;5.00;;;;;-146.25;100.00;57879.81;5076989;27;45498;-76
2021/12/27 08:51:06;;;;;;;;;7.00;7.00;;;;;-146.25;100.00;57879.81;5079891;27;45300;-76
2021/12/27 08:53:31;;;;;;;;;12.00;11.00;;;;;-146.25;100.00;57879.81;5080349;28;45317;-77
2021/12/27 08:55:57;;;;;;;;;13.33;10.33;;;;;-146.25;100.00;57879.81;5080451;27;45384;-75
2021/12/27 08:58:23;;;;;;;;;11.67;10.00;;;;;-146.25;100.00;57879.81;5079678;28;45534;-76
2021/12/27 09:00:49;;;;;;;;;5.00;3.00;;;;;-146.25;100.00;57879.81;5079926;27;45401;-75
2021/12/27 09:03:15;;;;;;;;;3.33;2.33;;;;;-146.25;100.00;57879.81;5080188;27;45542;-76
2021/12/27 09:05:42;;;;;;;;;3.00;3.00;;;;;-146.25;100.00;57879.81;5080003;28;45431;-76
2021/12/27 09:08:08;;;;;;;;;3.33;3.00;;;;;-146.25;100.00;57879.81;5079889;27;46043;-76
2021/12/27 09:10:34;;;;;;;;;7.67;5.67;;;;;-146.25;100.00;57879.81;5080053;27;45305;-75
2021/12/27 09:13:00;;;;;;;;;2.00;1.67;;;;;-146.25;100.00;57879.81;5080170;27;45539;-75
2021/12/27 09:15:27;;;;;;;;;3.50;3.50;;;;;-146.25;100.00;57879.81;5080250;28;45413;-75
2021/12/27 09:17:53;;;;;;;;;2.67;2.00;;;;;-146.25;100.00;57879.81;5079669;27;46338;-75
2021/12/27 09:20:21;;;;;;;;;3.00;3.00;;;;;-146.25;100.00;57879.81;5078357;28;45389;-74
2021/12/27 09:22:47;;;;;;;;;3.00;3.00;;;;;-146.25;100.00;57879.81;5095499;27;45528;-75
2021/12/27 09:25:12;;;;;;;;;3.00;2.00;;;;;-146.25;100.00;57879.81;5079786;27;45440;-76
2021/12/27 09:27:38;;;;;;;;;2.00;2.00;;;;;-146.25;100.00;57879.81;5079650;27;45678;-75
2021/12/27 09:30:05;;;;;;;;;1.00;1.00;;;;;-146.25;100.00;57879.81;5079714;28;45261;-76
2021/12/27 09:32:30;;;;;;;;;3.67;3.00;;;;;-146.25;100.00;57879.81;5079910;27;45357;-77
2021/12/27 09:34:56;;;;;;;;;1.00;1.00;;;;;-146.25;100.00;57879.81;5079820;28;45601;-76
2021/12/27 09:37:22;;;;;;;;;4.00;3.00;;;;;-146.25;100.00;57879.81;5079336;28;45504;-77
2021/12/27 09:39:53;;;;;;;;;5.67;4.00;;;;;-146.25;100.00;57879.81;5079374;27;45608;-77
2021/12/27 09:42:28;;;;;;;;;20.67;18.67;;;;;-146.25;100.00;57879.81;5079374;28;45693;-75
2021/12/27 09:44:56;;;;;;;;;16.33;15.00;;;;;-146.25;100.00;57879.81;5079556;27;45597;-76
2021/12/27 09:47:21;;;;;;;;;12.67;11.00;;;;;-146.25;100.00;57879.81;5079055;27;45258;-76
2021/12/27 09:49:48;;;;;;;;;18.00;17.25;;;;;-146.25;100.00;57879.81;5079241;28;45228;-76
2021/12/27 09:52:14;;;;;;;;;4.33;4.00;;;;;-146.25;100.00;57879.81;5079412;27;45468;-76
2021/12/27 09:54:40;;;;;;;;;7.00;7.00;;;;;-146.25;100.00;57879.81;5079493;27;45524;-76
2021/12/27 09:57:06;;;;;;;;;10.33;10.33;;;;;-146.25;100.00;57879.81;5078991;27;46076;-77
2021/12/27 09:59:31;;;;;;;;;6.33;4.67;;;;;-146.25;100.00;57879.81;5078077;28;45359;-75
2021/12/27 10:01:57;;;;;;;;;12.00;10.67;;;;;-146.25;100.00;57879.81;5093888;27;45531;-77
2021/12/27 10:04:23;;;;;;;;;16.67;14.67;;;;;-146.25;100.00;57879.81;5079169;27;45495;-76
2021/12/27 10:06:49;;;;;;;;;12.67;11.00;;;;;-146.25;100.00;57879.81;5078491;28;46162;-75
2021/12/27 10:09:15;;;;;;;;;15.50;15.00;;;;;-146.25;100.00;57879.81;5078351;27;45467;-75
2021/12/27 10:11:43;;;;;;;;;15.00;14.00;;;;;-146.25;100.00;57879.81;5078343;27;45683;-76
2021/12/27 10:14:16;;;;;;;;;19.00;17.33;;;;;-146.25;100.00;57879.81;5078523;27;45369;-76
2021/12/27 10:16:49;;;;;;;;;16.00;15.00;;;;;-146.25;100.00;57879.81;5078460;27;45451;-76
2021/12/27 10:19:18;;;;;;;;;11.33;8.67;;;;;-146.25;100.00;57879.81;5078475;27;45318;-76
2021/12/27 10:21:49;;;;;;;;;13.67;10.00;;;;;-146.25;100.00;57879.81;5078660;27;45318;-77
2021/12/27 10:24:18;;;;;;;;;3.33;3.33;;;;;-146.25;100.00;57879.81;5078810;27;45180;-76
2021/12/27 10:26:52;;;;;;;;;2.67;2.00;;;;;-146.25;100.00;57879.81;5079103;27;45945;-76
2021/12/27 10:29:26;;;;;;;;;3.00;3.00;;;;;-146.25;100.00;57879.81;5079294;27;45532;-75
2021/12/27 10:32:00;;;;;;;;;4.33;3.00;;;;;-146.25;100.00;57879.81;5079802;27;45561;-77
2021/12/27 10:34:30;;;;;;;;;1.00;1.00;;;;;-146.25;100.00;57879.81;5086828;27;45377;-77
2021/12/27 10:37:10;;;;;;;;;3.00;2.00;;;;;-146.25;100.00;57879.81;5081426;27;46240;-77
2021/12/27 10:39:47;;;;;;;;;2.00;1.00;;;;;-146.25;100.00;57879.81;5090777;27;45156;-76
2021/12/27 10:42:16;;;;;;;;;2.00;2.00;;;;;-146.25;100.00;57879.81;5100144;27;45201;-76
2021/12/27 10:44:57;;;;;;;;;2.00;2.00;;;;;-146.25;100.00;57879.81;5080659;27;45694;-76
2021/12/27 10:47:37;;;;;;;;;1.00;1.00;;;;;-146.25;100.00;57879.81;5079940;27;46242;-77
2021/12/27 10:50:07;;;;;;;;;0.67;0.67;;;;;-146.25;100.00;57879.81;5079737;28;45384;-76
2021/12/27 10:53:04;;;;;;;;;3.00;3.00;;;;;-146.25;100.00;57879.81;5079134;27;45187;-77
2021/12/27 10:55:38;;;;;;;;;2.33;2.33;;;;;-146.25;100.00;57879.81;5079329;27;45511;-77
2021/12/27 10:58:15;;;;;;;;;2.00;1.67;;;;;-146.25;100.00;57879.81;5078904;27;46028;-77
2021/12/27 11:00:42;;;;;;;;;4.00;2.33;;;;;-146.25;100.00;57879.81;5079150;27;45664;-73
2021/12/27 11:03:30;;;;;;;;;1.00;1.00;;;;;-146.25;100.00;57879.81;5079097;27;45499;-76
2021/12/27 11:05:57;;;;;;;;;2.00;2.00;;;;;-146.25;100.00;57879.81;5078257;27;45346;-77
2021/12/27 11:08:24;;;;;;;;;1.00;1.00;;;;;-146.25;100.00;57879.81;5077497;27;46284;-77